createdAt,value
2019-06-26T00:00:13.797Z,7.30
2019-06-26T00:02:42.965Z,8.23
2019-06-26T00:05:12.114Z,8.30
2019-06-26T00:07:41.142Z,8.10
2019-06-26T00:10:10.566Z,8.03
2019-06-26T00:12:39.328Z,8.00
2019-06-26T00:15:09.332Z,7.70
2019-06-26T00:17:38.483Z,7.80
2019-06-26T00:20:07.996Z,8.30
2019-06-26T00:22:37.059Z,8.10
2019-06-26T00:25:06.090Z,7.73
2019-06-26T00:27:35.260Z,8.23
2019-06-26T00:30:04.912Z,7.47
2019-06-26T00:32:34.015Z,8.03
2019-06-26T00:35:02.842Z,8.17
2019-06-26T00:37:31.880Z,8.63
2019-06-26T00:40:00.629Z,8.65
2019-06-26T00:42:29.671Z,9.10
2019-06-26T00:44:58.450Z,8.03
2019-06-26T00:47:27.217Z,8.43
2019-06-26T00:49:56.017Z,8.10
2019-06-26T00:52:24.783Z,8.20
2019-06-26T00:54:53.865Z,8.27
2019-06-26T00:57:23.211Z,8.03
2019-06-26T00:59:51.983Z,9.53
2019-06-26T01:02:21.141Z,8.87
2019-06-26T01:04:52.175Z,9.50
2019-06-26T01:07:20.954Z,8.60
2019-06-26T01:09:49.731Z,8.30
2019-06-26T01:12:18.555Z,8.77
2019-06-26T01:14:47.815Z,9.10
2019-06-26T01:17:17.391Z,9.00
2019-06-26T01:19:46.194Z,8.80
2019-06-26T01:22:15.379Z,9.20
2019-06-26T01:24:44.167Z,9.73
2019-06-26T01:27:12.936Z,8.95
2019-06-26T01:29:42.078Z,8.63
2019-06-26T01:32:10.837Z,8.90
2019-06-26T01:34:39.865Z,8.60
2019-06-26T01:37:08.666Z,9.33
2019-06-26T01:39:37.500Z,8.60
2019-06-26T01:42:06.695Z,8.90
2019-06-26T01:44:35.460Z,10.00
2019-06-26T01:47:04.629Z,8.60
2019-06-26T01:49:33.735Z,8.33
2019-06-26T01:52:03.000Z,10.10
2019-06-26T01:54:31.852Z,8.88
2019-06-26T01:57:01.368Z,9.97
2019-06-26T01:59:30.411Z,9.37
2019-06-26T02:01:59.754Z,9.00
2019-06-26T02:04:28.838Z,8.70
2019-06-26T02:06:58.089Z,10.03
2019-06-26T02:09:27.167Z,9.90
2019-06-26T02:11:56.471Z,9.90
2019-06-26T02:14:31.002Z,10.17
2019-06-26T02:16:56.292Z,9.90
2019-06-26T02:19:25.311Z,9.77
2019-06-26T02:21:54.435Z,10.27
2019-06-26T02:24:23.690Z,9.53
2019-06-26T02:26:53.017Z,10.57
2019-06-26T02:29:22.063Z,10.20
2019-06-26T02:31:50.859Z,10.17
2019-06-26T02:34:19.796Z,10.30
2019-06-26T02:36:49.119Z,10.23
2019-06-26T02:39:18.636Z,10.43
2019-06-26T02:41:47.437Z,9.10
2019-06-26T02:44:16.722Z,9.90
2019-06-26T02:46:45.786Z,9.60
2019-06-26T02:49:14.665Z,9.87
2019-06-26T02:51:43.747Z,10.65
2019-06-26T02:54:13.008Z,9.70
2019-06-26T02:56:41.806Z,10.00
2019-06-26T02:59:10.629Z,10.27
2019-06-26T03:01:39.641Z,9.77
2019-06-26T03:04:08.697Z,10.08
2019-06-26T03:06:37.980Z,10.47
2019-06-26T03:09:07.830Z,10.40
2019-06-26T03:11:36.614Z,9.90
2019-06-26T03:14:05.538Z,9.77
2019-06-26T03:16:35.029Z,10.17
2019-06-26T03:19:04.351Z,10.00
2019-06-26T03:21:33.573Z,9.73
2019-06-26T03:24:02.603Z,10.90
2019-06-26T03:26:31.439Z,9.63
2019-06-26T03:29:00.999Z,9.83
2019-06-26T03:31:29.991Z,10.03
2019-06-26T03:33:58.799Z,10.03
2019-06-26T03:36:27.890Z,9.73
2019-06-26T03:38:56.886Z,10.10
2019-06-26T03:41:25.974Z,10.40
2019-06-26T03:43:54.743Z,10.15
2019-06-26T03:46:23.828Z,9.03
2019-06-26T03:48:52.684Z,9.40
2019-06-26T03:51:22.268Z,10.17
2019-06-26T03:53:51.517Z,9.43
2019-06-26T03:56:20.583Z,9.77
2019-06-26T03:58:49.944Z,10.90
2019-06-26T04:01:19.022Z,11.10
2019-06-26T04:03:47.805Z,10.90
2019-06-26T04:06:16.564Z,9.37
2019-06-26T04:08:45.614Z,10.57
2019-06-26T04:11:14.378Z,9.57
2019-06-26T04:13:43.426Z,10.70
2019-06-26T04:16:12.267Z,9.90
2019-06-26T04:18:41.271Z,10.33
2019-06-26T04:21:10.593Z,9.93
2019-06-26T04:23:39.605Z,10.17
2019-06-26T04:26:08.599Z,10.53
2019-06-26T04:28:37.371Z,10.47
2019-06-26T04:31:06.193Z,10.10
2019-06-26T04:33:35.463Z,9.87
2019-06-26T04:36:04.393Z,10.47
2019-06-26T04:38:33.422Z,10.43
2019-06-26T04:41:02.524Z,9.90
2019-06-26T04:43:31.285Z,10.47
2019-06-26T04:46:00.889Z,9.98
2019-06-26T04:48:29.920Z,10.07
2019-06-26T04:50:59.185Z,10.70
2019-06-26T04:53:28.003Z,10.40
2019-06-26T04:55:56.774Z,10.23
2019-06-26T04:58:25.770Z,9.83
2019-06-26T05:00:54.807Z,9.97
2019-06-26T05:03:23.782Z,11.30
2019-06-26T05:05:52.887Z,10.70
2019-06-26T05:08:21.929Z,9.50
2019-06-26T05:10:50.824Z,10.70
2019-06-26T05:13:20.075Z,11.07
2019-06-26T05:15:48.943Z,10.90
2019-06-26T05:18:17.786Z,11.13
2019-06-26T05:20:46.786Z,10.90
2019-06-26T05:23:15.775Z,11.40
2019-06-26T05:25:44.549Z,12.00
2019-06-26T05:28:13.588Z,17.00
2019-06-26T05:30:42.854Z,13.63
2019-06-26T05:33:12.023Z,16.17
2019-06-26T05:35:41.041Z,18.93
2019-06-26T05:38:09.834Z,16.00
2019-06-26T05:40:39.075Z,16.37
2019-06-26T05:43:08.108Z,18.37
2019-06-26T05:45:37.243Z,19.40
2019-06-26T05:48:06.179Z,19.60
2019-06-26T05:50:35.241Z,19.47
2019-06-26T05:53:04.089Z,20.10
2019-06-26T05:55:33.178Z,20.20
2019-06-26T05:58:02.112Z,20.90
2019-06-26T06:00:31.004Z,20.80
2019-06-26T06:03:00.302Z,20.90
2019-06-26T06:05:29.326Z,17.50
2019-06-26T06:07:58.482Z,20.40
2019-06-26T06:10:27.345Z,20.27
2019-06-26T06:12:56.418Z,18.33
2019-06-26T06:15:25.244Z,19.33
2019-06-26T06:17:54.357Z,18.90
2019-06-26T06:20:30.692Z,19.87
2019-06-26T06:22:59.743Z,20.47
2019-06-26T06:25:28.511Z,21.30
2019-06-26T06:27:57.610Z,20.40
2019-06-26T06:30:27.000Z,18.77
2019-06-26T06:32:56.943Z,19.60
2019-06-26T06:35:26.015Z,20.57
2019-06-26T06:37:55.074Z,19.07
2019-06-26T06:40:24.294Z,18.57
2019-06-26T06:42:53.562Z,19.77
2019-06-26T06:45:22.586Z,18.50
2019-06-26T06:47:51.927Z,19.20
2019-06-26T06:50:20.795Z,21.50
2019-06-26T06:52:49.778Z,19.90
2019-06-26T06:55:18.996Z,19.80
2019-06-26T06:57:48.880Z,18.87
2019-06-26T07:00:18.334Z,19.70
2019-06-26T07:02:47.350Z,19.47
2019-06-26T07:05:16.527Z,20.50
2019-06-26T07:07:45.613Z,20.70
2019-06-26T07:10:14.509Z,20.07
2019-06-26T07:12:43.372Z,18.70
2019-06-26T07:15:12.912Z,19.48
2019-06-26T07:17:42.176Z,18.00
2019-06-26T07:20:12.322Z,19.00
2019-06-26T07:22:41.677Z,17.50
2019-06-26T07:25:11.599Z,17.87
2019-06-26T07:27:40.391Z,18.03
2019-06-26T07:30:10.610Z,18.07
2019-06-26T07:32:39.682Z,17.80
2019-06-26T07:35:13.374Z,19.33
2019-06-26T07:37:43.646Z,17.07
2019-06-26T07:40:12.814Z,16.93
2019-06-26T07:42:41.853Z,16.40
2019-06-26T07:45:12.210Z,15.20
2019-06-26T07:47:43.801Z,16.87
2019-06-26T07:50:12.536Z,17.60
2019-06-26T07:52:42.162Z,18.57
2019-06-26T07:55:12.593Z,17.47
2019-06-26T07:57:42.107Z,16.47
2019-06-26T08:00:11.516Z,18.20
2019-06-26T08:02:40.578Z,16.40
2019-06-26T08:05:10.470Z,18.03
2019-06-26T08:07:39.573Z,15.60
2019-06-26T08:10:08.848Z,16.27
2019-06-26T08:12:37.661Z,15.67
2019-06-26T08:15:06.786Z,14.17
2019-06-26T08:17:36.306Z,13.80
2019-06-26T08:20:06.233Z,15.50
2019-06-26T08:22:35.125Z,13.90
2019-06-26T08:25:04.675Z,13.73
2019-06-26T08:27:33.768Z,12.40
2019-06-26T08:30:03.006Z,13.00
2019-06-26T08:32:32.111Z,15.50
2019-06-26T08:35:01.119Z,14.07
2019-06-26T08:37:32.065Z,14.33
2019-06-26T08:40:01.159Z,15.00
2019-06-26T08:42:30.418Z,15.80
2019-06-26T08:44:59.451Z,13.83
2019-06-26T08:47:28.559Z,16.30
2019-06-26T08:49:57.741Z,14.63
2019-06-26T08:52:26.525Z,16.80
2019-06-26T08:54:55.756Z,13.73
2019-06-26T08:57:24.530Z,14.73
2019-06-26T08:59:54.063Z,15.50
2019-06-26T09:02:22.894Z,15.73
2019-06-26T09:04:51.912Z,16.47
2019-06-26T09:07:21.350Z,16.17
2019-06-26T09:09:50.629Z,16.60
2019-06-26T09:12:19.659Z,16.90
2019-06-26T09:14:48.898Z,16.97
2019-06-26T09:17:18.203Z,17.67
2019-06-26T09:19:47.269Z,17.40
2019-06-26T09:22:16.058Z,16.90
2019-06-26T09:25:21.451Z,15.70
2019-06-26T09:27:40.538Z,15.00
2019-06-26T09:30:11.776Z,13.97
2019-06-26T09:32:40.591Z,13.53
2019-06-26T09:35:09.597Z,14.03
2019-06-26T09:37:48.567Z,12.67
2019-06-26T09:40:18.451Z,12.60
2019-06-26T09:42:47.872Z,12.78
2019-06-26T09:45:17.211Z,11.90
2019-06-26T09:47:45.982Z,12.00
2019-06-26T09:50:16.182Z,11.30
2019-06-26T09:52:45.348Z,12.17
2019-06-26T09:55:19.263Z,10.20
2019-06-26T09:57:48.475Z,10.13
2019-06-26T10:00:18.315Z,9.93
2019-06-26T10:02:47.222Z,10.40
2019-06-26T10:05:17.334Z,10.27
2019-06-26T10:07:46.701Z,9.70
2019-06-26T10:10:16.176Z,10.13
2019-06-26T10:12:45.585Z,11.53
2019-06-26T10:15:16.858Z,10.17
2019-06-26T10:17:46.918Z,11.20
2019-06-26T10:20:16.235Z,11.70
2019-06-26T10:22:45.366Z,10.23
2019-06-26T10:25:15.618Z,9.90
2019-06-26T10:27:44.926Z,10.70
2019-06-26T10:30:15.109Z,10.88
2019-06-26T10:32:43.961Z,11.43
2019-06-26T10:35:14.171Z,11.33
2019-06-26T10:37:43.411Z,10.77
2019-06-26T10:40:16.209Z,10.40
2019-06-26T10:42:43.659Z,9.37
2019-06-26T10:45:12.671Z,10.07
2019-06-26T10:47:41.762Z,8.97
2019-06-26T10:50:11.146Z,9.13
2019-06-26T10:52:40.158Z,9.50
2019-06-26T10:55:09.469Z,9.57
2019-06-26T10:57:38.990Z,8.73
2019-06-26T11:00:08.891Z,8.83
2019-06-26T11:02:39.335Z,7.60
2019-06-26T11:05:09.219Z,7.37
2019-06-26T11:07:38.247Z,6.70
2019-06-26T11:10:07.525Z,7.10
2019-06-26T11:12:36.646Z,6.30
2019-06-26T11:15:06.488Z,7.43
2019-06-26T11:17:35.241Z,6.30
2019-06-26T11:20:05.190Z,6.77
2019-06-26T11:22:34.436Z,6.27
2019-06-26T11:25:03.364Z,5.90
2019-06-26T11:27:32.301Z,5.10
2019-06-26T11:30:02.007Z,5.58
2019-06-26T11:32:30.831Z,6.10
2019-06-26T11:35:00.155Z,7.05
2019-06-26T11:37:28.940Z,6.50
2019-06-26T11:39:58.303Z,5.80
2019-06-26T11:42:27.567Z,5.40
2019-06-26T11:44:58.556Z,5.03
2019-06-26T11:47:27.717Z,5.60
2019-06-26T11:50:00.159Z,5.30
2019-06-26T11:52:28.218Z,5.30
2019-06-26T11:55:02.511Z,5.40
2019-06-26T11:57:28.357Z,4.90
2019-06-26T11:59:57.564Z,4.50
2019-06-26T12:02:26.559Z,4.17
2019-06-26T12:04:55.318Z,4.93
2019-06-26T12:07:24.370Z,4.53
2019-06-26T12:09:53.480Z,4.87
2019-06-26T12:12:22.685Z,5.40
2019-06-26T12:14:51.819Z,5.40
2019-06-26T12:17:20.614Z,5.40
2019-06-26T12:19:49.614Z,5.40
2019-06-26T12:22:18.892Z,4.90
2019-06-26T12:24:48.961Z,5.03
2019-06-26T12:27:18.023Z,5.50
2019-06-26T12:29:47.291Z,4.77
2019-06-26T12:32:16.146Z,5.07
2019-06-26T12:34:45.437Z,4.33
2019-06-26T12:37:14.728Z,4.50
2019-06-26T12:39:44.308Z,4.65
2019-06-26T12:42:13.394Z,4.20
2019-06-26T12:44:42.419Z,4.20
2019-06-26T12:47:11.413Z,3.80
2019-06-26T12:49:40.253Z,4.13
2019-06-26T12:52:09.155Z,3.70
2019-06-26T12:54:38.404Z,4.40
2019-06-26T12:57:07.232Z,4.53
2019-06-26T12:59:36.252Z,4.60
2019-06-26T13:02:05.647Z,4.43
2019-06-26T13:04:34.689Z,4.70
2019-06-26T13:07:04.010Z,4.50
2019-06-26T13:09:33.202Z,4.90
2019-06-26T13:12:02.268Z,4.13
2019-06-26T13:14:31.274Z,4.45
2019-06-26T13:17:00.053Z,4.40
2019-06-26T13:19:29.085Z,5.00
2019-06-26T13:21:58.607Z,4.77
2019-06-26T13:24:27.501Z,4.00
2019-06-26T13:26:56.626Z,4.47
2019-06-26T13:29:25.759Z,4.30
2019-06-26T13:31:54.883Z,3.93
2019-06-26T13:34:23.620Z,4.40
2019-06-26T13:36:53.074Z,4.23
2019-06-26T13:39:22.563Z,5.07
2019-06-26T13:41:51.865Z,4.90
2019-06-26T13:44:21.120Z,5.37
2019-06-26T13:46:50.352Z,4.60
2019-06-26T13:49:19.117Z,4.97
2019-06-26T13:51:47.858Z,5.07
2019-06-26T13:54:16.789Z,5.90
2019-06-26T13:56:45.874Z,6.33
2019-06-26T13:59:15.670Z,7.00
2019-06-26T14:01:44.896Z,6.47
2019-06-26T14:04:14.235Z,6.80
2019-06-26T14:06:43.297Z,8.37
2019-06-26T14:09:12.435Z,8.40
2019-06-26T14:11:41.301Z,7.50
2019-06-26T14:14:10.192Z,7.87
2019-06-26T14:16:39.293Z,6.67
2019-06-26T14:19:08.111Z,7.23
2019-06-26T14:21:40.022Z,6.93
2019-06-26T14:24:09.589Z,7.37
2019-06-26T14:26:39.247Z,6.37
2019-06-26T14:29:20.570Z,6.80
2019-06-26T14:31:39.839Z,6.43
2019-06-26T14:34:09.004Z,8.50
2019-06-26T14:36:39.491Z,6.97
2019-06-26T14:39:08.352Z,6.90
2019-06-26T14:41:39.243Z,7.40
2019-06-26T14:44:08.536Z,7.50
2019-06-26T14:46:37.525Z,7.80
2019-06-26T14:49:06.382Z,7.70
2019-06-26T14:51:43.932Z,8.70
2019-06-26T14:54:11.975Z,8.30
2019-06-26T14:56:41.281Z,9.00
2019-06-26T14:59:10.300Z,9.03
2019-06-26T15:01:39.870Z,10.83
2019-06-26T15:04:08.641Z,9.93
2019-06-26T15:06:37.983Z,9.20
2019-06-26T15:09:07.379Z,8.97
2019-06-26T15:11:36.297Z,9.70
2019-06-26T15:14:05.992Z,9.27
2019-06-26T15:16:34.826Z,8.77
2019-06-26T15:19:03.874Z,9.27
2019-06-26T15:21:33.188Z,8.60
2019-06-26T15:24:02.325Z,8.53
2019-06-26T15:26:31.602Z,7.63
2019-06-26T15:29:00.843Z,7.70
2019-06-26T15:31:29.863Z,7.87
2019-06-26T15:33:58.650Z,7.03
2019-06-26T15:36:27.937Z,7.23
2019-06-26T15:38:59.259Z,8.30
2019-06-26T15:41:27.847Z,8.80
2019-06-26T15:43:57.190Z,7.40
2019-06-26T15:46:26.238Z,8.00
2019-06-26T15:48:55.024Z,7.17
2019-06-26T15:51:24.231Z,7.05
2019-06-26T15:53:53.502Z,7.50
2019-06-26T15:56:23.039Z,6.27
2019-06-26T15:58:52.254Z,7.30
2019-06-26T16:01:21.786Z,7.03
2019-06-26T16:03:50.859Z,6.87
2019-06-26T16:06:19.987Z,7.50
2019-06-26T16:08:48.994Z,6.90
2019-06-26T16:11:18.171Z,7.53
2019-06-26T16:13:47.819Z,8.23
2019-06-26T16:16:17.066Z,8.27
2019-06-26T16:18:55.225Z,8.37
2019-06-26T16:21:24.942Z,7.93
2019-06-26T16:23:54.854Z,8.03
2019-06-26T16:26:24.312Z,7.50
2019-06-26T16:28:53.790Z,6.90
2019-06-26T16:31:23.085Z,6.70
2019-06-26T16:33:52.311Z,6.00
2019-06-26T16:36:22.754Z,5.90
2019-06-26T16:38:52.046Z,6.03
2019-06-26T16:41:22.338Z,5.40
2019-06-26T16:43:51.538Z,4.87
2019-06-26T16:46:20.779Z,5.60
2019-06-26T16:48:49.787Z,5.27
2019-06-26T16:51:19.343Z,5.67
2019-06-26T16:53:49.102Z,5.60
2019-06-26T16:56:18.451Z,5.80
2019-06-26T16:58:47.779Z,5.40
2019-06-26T17:01:17.319Z,5.97
2019-06-26T17:03:46.334Z,6.10
2019-06-26T17:06:15.361Z,5.60
2019-06-26T17:08:44.521Z,6.50
2019-06-26T17:11:13.783Z,5.97
2019-06-26T17:13:43.079Z,6.77
2019-06-26T17:16:12.415Z,6.40
2019-06-26T17:18:41.324Z,6.47
2019-06-26T17:21:10.845Z,6.03
2019-06-26T17:23:40.386Z,6.60
2019-06-26T17:26:09.150Z,6.00
2019-06-26T17:28:38.403Z,6.60
2019-06-26T17:31:07.689Z,6.90
2019-06-26T17:33:36.987Z,6.30
2019-06-26T17:36:05.970Z,6.00
2019-06-26T17:38:34.884Z,7.00
2019-06-26T17:41:03.714Z,6.80
2019-06-26T17:43:33.027Z,5.83
2019-06-26T17:46:01.771Z,6.13
2019-06-26T17:48:30.795Z,5.70
2019-06-26T17:50:59.656Z,6.00
2019-06-26T17:53:28.502Z,6.77
2019-06-26T17:55:57.524Z,6.20
2019-06-26T17:58:26.532Z,6.07
2019-06-26T18:00:55.309Z,5.77
2019-06-26T18:03:24.154Z,6.20
2019-06-26T18:05:53.662Z,6.90
2019-06-26T18:08:22.751Z,6.30
2019-06-26T18:10:52.163Z,5.90
2019-06-26T18:13:21.269Z,6.13
2019-06-26T18:15:50.114Z,6.00
2019-06-26T18:18:19.530Z,6.23
2019-06-26T18:20:49.139Z,5.43
2019-06-26T18:23:17.873Z,5.97
2019-06-26T18:25:53.825Z,6.50
2019-06-26T18:28:17.580Z,6.30
2019-06-26T18:30:47.077Z,5.73
2019-06-26T18:33:16.144Z,6.50
2019-06-26T18:35:44.991Z,7.37
2019-06-26T18:38:13.741Z,5.87
2019-06-26T18:40:43.113Z,5.87
2019-06-26T18:43:14.994Z,6.70
2019-06-26T18:45:42.469Z,6.10
2019-06-26T18:48:11.762Z,6.20
2019-06-26T18:50:41.040Z,5.70
2019-06-26T18:53:10.278Z,6.77
2019-06-26T18:55:39.286Z,6.10
2019-06-26T18:58:08.287Z,5.80
2019-06-26T19:00:37.584Z,5.70
2019-06-26T19:03:06.654Z,5.93
2019-06-26T19:05:35.449Z,5.90
2019-06-26T19:08:04.216Z,5.77
2019-06-26T19:10:33.046Z,5.90
2019-06-26T19:13:02.103Z,6.37
2019-06-26T19:15:31.236Z,6.03
2019-06-26T19:17:59.987Z,5.80
2019-06-26T19:20:29.035Z,6.35
2019-06-26T19:22:58.438Z,6.07
2019-06-26T19:25:27.723Z,6.40
2019-06-26T19:27:57.254Z,5.93
2019-06-26T19:30:26.069Z,6.27
2019-06-26T19:32:54.892Z,6.70
2019-06-26T19:35:23.740Z,6.17
2019-06-26T19:37:52.825Z,6.37
2019-06-26T19:40:24.105Z,5.60
2019-06-26T19:42:53.946Z,6.20
2019-06-26T19:45:24.234Z,6.67
2019-06-26T19:47:53.196Z,6.50
2019-06-26T19:50:23.611Z,6.77
2019-06-26T19:52:54.222Z,7.33
2019-06-26T19:55:23.703Z,7.03
2019-06-26T19:57:52.702Z,6.80
2019-06-26T20:00:22.035Z,6.37
2019-06-26T20:02:50.784Z,6.80
2019-06-26T20:05:19.629Z,5.58
2019-06-26T20:07:48.370Z,5.95
2019-06-26T20:10:18.090Z,5.87
2019-06-26T20:12:47.236Z,6.57
2019-06-26T20:15:16.252Z,6.00
2019-06-26T20:17:45.594Z,5.95
2019-06-26T20:20:14.856Z,6.25
2019-06-26T20:22:44.069Z,5.90
2019-06-26T20:25:13.655Z,5.57
2019-06-26T20:27:42.497Z,5.20
2019-06-26T20:30:12.821Z,5.87
2019-06-26T20:32:41.822Z,5.70
2019-06-26T20:35:11.158Z,5.10
2019-06-26T20:37:40.395Z,5.23
2019-06-26T20:40:09.479Z,6.30
2019-06-26T20:42:38.581Z,5.10
2019-06-26T20:45:09.337Z,4.93
2019-06-26T20:47:38.338Z,5.00
2019-06-26T20:50:07.681Z,4.67
2019-06-26T20:52:36.421Z,5.70
2019-06-26T20:55:05.339Z,4.73
2019-06-26T20:57:34.185Z,4.90
2019-06-26T21:00:03.294Z,4.60
2019-06-26T21:02:32.623Z,4.90
2019-06-26T21:05:01.449Z,5.23
2019-06-26T21:07:30.520Z,5.47
2019-06-26T21:10:00.086Z,5.57
2019-06-26T21:12:29.137Z,5.10
2019-06-26T21:14:58.206Z,5.35
2019-06-26T21:17:27.222Z,5.27
2019-06-26T21:19:56.909Z,5.72
2019-06-26T21:22:26.197Z,5.60
2019-06-26T21:24:55.198Z,5.83
2019-06-26T21:27:24.254Z,6.30
2019-06-26T21:29:53.023Z,5.90
2019-06-26T21:32:22.283Z,6.20
2019-06-26T21:34:51.286Z,6.70
2019-06-26T21:37:20.819Z,5.93
2019-06-26T21:39:50.087Z,6.17
2019-06-26T21:42:19.223Z,6.50
2019-06-26T21:44:48.238Z,6.47
2019-06-26T21:47:17.314Z,7.10
2019-06-26T21:50:05.941Z,6.93
2019-06-26T21:52:35.280Z,6.50
2019-06-26T21:55:04.203Z,6.83
2019-06-26T21:57:33.530Z,6.20
2019-06-26T22:00:02.542Z,5.73
2019-06-26T22:02:32.010Z,7.13
2019-06-26T22:05:01.787Z,7.20
2019-06-26T22:07:31.051Z,6.40
2019-06-26T22:10:00.087Z,6.80
2019-06-26T22:12:29.491Z,6.63
2019-06-26T22:14:58.457Z,7.80
2019-06-26T22:17:27.594Z,7.27
2019-06-26T22:19:56.431Z,7.43
2019-06-26T22:22:25.607Z,7.73
2019-06-26T22:24:54.738Z,8.07
2019-06-26T22:27:23.831Z,6.70
2019-06-26T22:29:52.612Z,7.77
2019-06-26T22:32:21.518Z,6.63
2019-06-26T22:34:50.864Z,6.97
2019-06-26T22:37:19.614Z,7.17
2019-06-26T22:39:48.878Z,7.30
2019-06-26T22:42:18.135Z,6.50
2019-06-26T22:44:47.123Z,6.23
2019-06-26T22:47:15.873Z,7.57
2019-06-26T22:49:45.178Z,6.27
2019-06-26T22:52:14.423Z,6.10
2019-06-26T22:54:43.458Z,6.80
2019-06-26T22:57:12.190Z,5.57
2019-06-26T22:59:41.555Z,5.93
2019-06-26T23:02:10.309Z,5.00
2019-06-26T23:04:39.391Z,4.90
2019-06-26T23:07:08.159Z,4.13
2019-06-26T23:09:37.436Z,4.73
2019-06-26T23:12:06.419Z,4.40
2019-06-26T23:14:35.273Z,3.90
2019-06-26T23:17:04.726Z,3.80
2019-06-26T23:19:33.728Z,3.87
2019-06-26T23:22:02.745Z,4.17
2019-06-26T23:24:31.737Z,3.20
2019-06-26T23:27:00.697Z,3.60
2019-06-26T23:29:29.523Z,3.40
2019-06-26T23:31:58.581Z,2.97
2019-06-26T23:34:27.602Z,3.60
2019-06-26T23:36:56.352Z,3.07
2019-06-26T23:39:25.114Z,3.23
2019-06-26T23:41:54.091Z,2.77
2019-06-26T23:44:23.136Z,3.52
2019-06-26T23:46:52.262Z,3.30
2019-06-26T23:49:21.351Z,3.10
2019-06-26T23:51:50.650Z,2.87
2019-06-26T23:54:19.986Z,3.00
2019-06-26T23:56:48.747Z,3.45
2019-06-26T23:59:17.744Z,2.95
